createdAt,value
2023-04-18T00:03:55.336Z,92.34
2023-04-18T00:08:52.776Z,90.51
2023-04-18T00:13:49.279Z,93.32
2023-04-18T00:18:45.875Z,92.67
2023-04-18T00:23:44.448Z,91.55
2023-04-18T00:28:41.706Z,91.75
2023-04-18T00:33:40.197Z,92.25
2023-04-18T00:38:37.209Z,90.64
2023-04-18T00:43:34.524Z,91.73
2023-04-18T00:48:31.852Z,92.47
2023-04-18T00:53:29.034Z,94.27
2023-04-18T00:58:26.130Z,94.50
2023-04-18T01:03:23.646Z,93.58
2023-04-18T01:08:21.364Z,94.31
2023-04-18T01:13:18.436Z,93.72
2023-04-18T01:18:16.375Z,96.69
2023-04-18T01:23:13.230Z,95.95
2023-04-18T01:28:11.073Z,94.53
2023-04-18T01:33:07.876Z,93.45
2023-04-18T01:38:04.530Z,93.59
2023-04-18T01:43:01.175Z,93.87
2023-04-18T01:47:58.549Z,94.49
2023-04-18T01:52:55.246Z,95.57
2023-04-18T01:57:52.165Z,95.21
2023-04-18T02:02:50.302Z,94.40
2023-04-18T02:07:49.707Z,93.32
2023-04-18T02:12:46.569Z,94.23
2023-04-18T02:17:43.330Z,94.03
2023-04-18T02:22:39.847Z,94.46
2023-04-18T02:27:37.174Z,93.69
2023-04-18T02:32:33.831Z,94.48
2023-04-18T02:37:30.786Z,94.52
2023-04-18T02:42:27.737Z,93.66
2023-04-18T02:47:25.035Z,91.63
2023-04-18T02:52:22.120Z,91.55
2023-04-18T02:57:18.719Z,91.28
2023-04-18T03:02:24.306Z,91.40
2023-04-18T03:07:26.385Z,90.88
2023-04-18T03:12:23.140Z,89.53
2023-04-18T03:17:19.761Z,89.52
2023-04-18T03:22:18.630Z,88.16
2023-04-18T03:27:27.167Z,87.73
2023-04-18T03:32:24.416Z,86.74
2023-04-18T03:37:21.384Z,87.63
2023-04-18T03:42:23.183Z,89.30
2023-04-18T03:47:20.681Z,90.32
2023-04-18T03:52:23.600Z,89.25
2023-04-18T03:57:20.258Z,88.81
2023-04-18T04:02:17.062Z,88.42
2023-04-18T04:07:14.486Z,87.91
2023-04-18T04:12:11.964Z,88.04
2023-04-18T04:17:08.721Z,87.60
2023-04-18T04:22:06.575Z,87.59
2023-04-18T04:27:04.653Z,89.57
2023-04-18T04:32:05.275Z,90.78
2023-04-18T04:37:09.261Z,91.63
2023-04-18T04:42:16.044Z,89.06
2023-04-18T04:47:23.037Z,90.35
2023-04-18T04:52:19.879Z,90.18
2023-04-18T04:57:17.270Z,90.14
2023-04-18T05:02:14.529Z,89.58
2023-04-18T05:07:11.309Z,87.14
2023-04-18T05:12:08.258Z,87.57
2023-04-18T05:17:06.973Z,88.19
2023-04-18T05:22:03.599Z,87.62
2023-04-18T05:27:01.063Z,87.67
2023-04-18T05:31:57.892Z,86.24
2023-04-18T05:36:55.507Z,85.97
2023-04-18T05:41:52.182Z,85.96
2023-04-18T05:46:51.299Z,85.06
2023-04-18T05:51:49.325Z,86.93
2023-04-18T05:56:46.914Z,86.89
2023-04-18T06:01:43.717Z,86.19
2023-04-18T06:06:40.498Z,87.32
2023-04-18T06:11:37.116Z,86.18
2023-04-18T06:16:35.874Z,87.83
2023-04-18T06:21:32.740Z,86.78
2023-04-18T06:26:31.354Z,85.44
2023-04-18T06:31:51.319Z,84.59
2023-04-18T06:37:16.906Z,83.90
2023-04-18T06:42:25.249Z,82.39
2023-04-18T06:48:00.831Z,81.77
2023-04-18T06:54:01.220Z,80.29
2023-04-18T06:59:51.082Z,78.84
2023-04-18T07:05:17.268Z,78.22
2023-04-18T07:17:14.891Z,78.59
2023-04-18T07:29:30.067Z,80.75
2023-04-18T07:35:25.237Z,79.77
2023-04-18T07:46:52.824Z,79.21
2023-04-18T07:58:21.336Z,81.15
2023-04-18T08:04:07.445Z,80.69
2023-04-18T08:09:40.142Z,79.72
2023-04-18T08:15:37.134Z,80.52
2023-04-18T08:22:04.161Z,78.94
2023-04-18T08:28:06.914Z,79.37
2023-04-18T08:33:39.030Z,79.96
2023-04-18T08:39:32.235Z,80.47
2023-04-18T08:44:50.814Z,79.20
2023-04-18T08:49:47.348Z,79.44
2023-04-18T08:54:46.252Z,78.44
2023-04-18T08:59:45.937Z,78.35
2023-04-18T09:04:45.126Z,77.80
2023-04-18T09:09:46.479Z,78.42
2023-04-18T09:14:44.960Z,77.48
2023-04-18T09:19:49.588Z,76.02
2023-04-18T09:24:52.198Z,75.38
2023-04-18T09:29:51.466Z,75.07
2023-04-18T09:34:48.275Z,75.00
2023-04-18T09:40:25.245Z,77.06
2023-04-18T09:45:43.032Z,77.30
2023-04-18T09:50:43.363Z,77.02
2023-04-18T09:55:41.766Z,77.86
2023-04-18T10:00:48.461Z,77.83
2023-04-18T10:05:46.962Z,80.44
2023-04-18T10:10:43.818Z,80.58
2023-04-18T10:15:50.501Z,81.31
2023-04-18T10:21:01.420Z,82.03
2023-04-18T10:26:03.836Z,81.51
2023-04-18T10:31:11.776Z,81.58
2023-04-18T10:36:16.596Z,80.02
2023-04-18T10:41:14.322Z,79.98
2023-04-18T10:46:24.042Z,78.73
2023-04-18T10:51:25.906Z,76.70
2023-04-18T10:56:23.103Z,76.62
2023-04-18T11:01:24.783Z,77.01
2023-04-18T11:06:21.756Z,76.43
2023-04-18T11:11:19.352Z,76.03
2023-04-18T11:16:25.462Z,76.78
2023-04-18T11:21:22.156Z,75.36
2023-04-18T11:26:21.122Z,76.10
2023-04-18T11:31:17.896Z,75.01
2023-04-18T11:36:14.663Z,74.92
2023-04-18T11:41:14.881Z,74.71
2023-04-18T11:46:13.052Z,75.13
2023-04-18T11:51:29.794Z,75.21
2023-04-18T11:56:26.439Z,74.49
2023-04-18T12:01:26.555Z,74.92
2023-04-18T12:06:23.401Z,73.98
2023-04-18T12:11:20.329Z,73.70
2023-04-18T12:16:16.867Z,73.93
2023-04-18T12:21:16.576Z,74.27
2023-04-18T12:26:14.684Z,73.75
2023-04-18T12:31:11.561Z,73.56
2023-04-18T12:36:09.400Z,74.51
2023-04-18T12:41:06.744Z,75.29
2023-04-18T12:46:03.544Z,74.71
2023-04-18T12:51:00.237Z,73.75
2023-04-18T12:55:56.856Z,73.93
2023-04-18T13:00:55.509Z,74.29
2023-04-18T13:05:53.786Z,74.78
2023-04-18T13:10:51.055Z,76.23
2023-04-18T13:15:48.023Z,76.06
2023-04-18T13:20:45.398Z,75.06
2023-04-18T13:25:42.004Z,76.15
2023-04-18T13:30:38.910Z,76.50
2023-04-18T13:35:36.133Z,77.31
2023-04-18T13:40:33.515Z,78.23
2023-04-18T13:45:30.192Z,78.47
2023-04-18T13:50:26.790Z,77.84
2023-04-18T13:55:23.648Z,77.98
2023-04-18T14:00:21.387Z,77.31
2023-04-18T14:05:18.076Z,77.68
2023-04-18T14:10:14.867Z,76.40
2023-04-18T14:15:11.827Z,75.61
2023-04-18T14:20:09.533Z,74.81
2023-04-18T14:25:07.783Z,74.84
2023-04-18T14:30:06.259Z,75.34
2023-04-18T14:35:05.551Z,74.90
2023-04-18T14:40:05.008Z,73.89
2023-04-18T14:45:02.372Z,74.29
2023-04-18T14:49:59.049Z,74.33
2023-04-18T14:54:55.616Z,73.65
2023-04-18T14:59:53.826Z,73.92
2023-04-18T15:04:51.088Z,74.20
2023-04-18T15:09:49.126Z,74.32
2023-04-18T15:14:45.746Z,74.15
2023-04-18T15:19:42.975Z,73.69
2023-04-18T15:24:39.708Z,73.44
2023-04-18T15:29:36.578Z,74.02
2023-04-18T15:34:33.253Z,73.15
2023-04-18T15:39:30.438Z,73.61
2023-04-18T15:44:27.472Z,72.78
2023-04-18T15:49:24.171Z,74.20
2023-04-18T15:54:20.892Z,74.78
2023-04-18T15:59:18.198Z,74.61
2023-04-18T16:04:17.590Z,75.42
2023-04-18T16:09:15.633Z,75.25
2023-04-18T16:14:12.387Z,75.22
2023-04-18T16:19:09.927Z,75.88
2023-04-18T16:24:07.208Z,75.87
2023-04-18T16:29:04.085Z,75.84
2023-04-18T16:34:02.549Z,75.68
2023-04-18T16:38:59.778Z,75.56
2023-04-18T16:43:56.682Z,75.23
2023-04-18T16:48:54.596Z,75.08
2023-04-18T16:53:51.175Z,75.60
2023-04-18T16:58:48.558Z,75.45
2023-04-18T17:03:45.350Z,75.26
2023-04-18T17:08:41.972Z,75.86
2023-04-18T17:13:38.639Z,75.72
2023-04-18T17:18:37.907Z,75.93
2023-04-18T17:23:34.812Z,78.05
2023-04-18T17:28:33.636Z,79.54
2023-04-18T17:33:31.988Z,79.55
2023-04-18T17:38:29.584Z,79.59
2023-04-18T17:43:26.211Z,79.87
2023-04-18T17:48:22.947Z,78.89
2023-04-18T17:53:19.578Z,78.89
2023-04-18T17:58:17.375Z,79.43
2023-04-18T18:03:14.484Z,78.70
2023-04-18T18:08:11.107Z,79.68
2023-04-18T18:13:08.189Z,78.86
2023-04-18T18:18:05.972Z,77.31
2023-04-18T18:23:02.912Z,75.45
2023-04-18T18:28:01.514Z,75.38
2023-04-18T18:32:58.282Z,75.22
2023-04-18T18:37:55.630Z,73.94
2023-04-18T18:43:06.566Z,74.16
2023-04-18T18:48:07.240Z,73.55
2023-04-18T18:53:11.000Z,73.47
2023-04-18T18:58:12.055Z,73.60
2023-04-18T19:03:18.408Z,74.44
2023-04-18T19:08:18.912Z,74.78
2023-04-18T19:13:15.523Z,73.81
2023-04-18T19:18:12.100Z,74.26
2023-04-18T19:23:08.711Z,74.21
2023-04-18T19:28:06.117Z,74.53
2023-04-18T19:33:02.937Z,74.29
2023-04-18T19:38:01.780Z,73.67
2023-04-18T19:42:58.392Z,73.50
2023-04-18T19:47:58.366Z,73.52
2023-04-18T19:52:55.285Z,74.78
2023-04-18T19:57:54.356Z,75.00
2023-04-18T20:02:51.258Z,75.62
2023-04-18T20:07:48.778Z,76.13
2023-04-18T20:12:45.502Z,76.72
2023-04-18T20:17:42.123Z,76.53
2023-04-18T20:22:39.805Z,77.30
2023-04-18T20:27:37.072Z,77.41
2023-04-18T20:32:34.044Z,78.09
2023-04-18T20:37:35.876Z,78.45
2023-04-18T20:42:32.497Z,79.38
2023-04-18T20:47:30.185Z,79.36
2023-04-18T20:52:26.832Z,80.73
2023-04-18T20:57:23.310Z,81.00
2023-04-18T21:02:20.007Z,81.39
2023-04-18T21:07:17.392Z,81.47
2023-04-18T21:12:14.059Z,81.73
2023-04-18T21:17:16.461Z,81.61
2023-04-18T21:22:13.429Z,82.89
2023-04-18T21:27:10.706Z,83.45
2023-04-18T21:32:07.361Z,84.17
2023-04-18T21:37:03.938Z,84.51
2023-04-18T21:42:01.188Z,83.93
2023-04-18T21:46:58.434Z,85.08
2023-04-18T21:51:55.054Z,85.30
2023-04-18T21:56:51.737Z,86.05
2023-04-18T22:01:48.276Z,84.56
2023-04-18T22:06:45.429Z,84.55
2023-04-18T22:11:42.300Z,84.23
2023-04-18T22:16:39.372Z,85.28
2023-04-18T22:21:36.177Z,85.85
2023-04-18T22:26:33.590Z,85.93
2023-04-18T22:31:30.401Z,87.20
2023-04-18T22:36:30.654Z,89.44
2023-04-18T22:41:30.715Z,89.00
2023-04-18T22:46:28.168Z,91.96
2023-04-18T22:51:24.782Z,92.11
2023-04-18T22:56:21.439Z,93.21
2023-04-18T23:01:18.124Z,93.74
2023-04-18T23:06:15.918Z,95.47
2023-04-18T23:11:12.966Z,96.50
2023-04-18T23:16:12.404Z,97.43
2023-04-18T23:21:09.082Z,96.32
2023-04-18T23:26:12.274Z,93.68
2023-04-18T23:31:09.103Z,93.11
2023-04-18T23:36:06.332Z,93.64
2023-04-18T23:41:03.076Z,94.93
2023-04-18T23:46:00.344Z,95.07
2023-04-18T23:50:58.812Z,93.16
2023-04-18T23:55:55.291Z,92.27
